Neillsville, WI (54456)

7:52 PM CST on December 04, 2016 (GMT -0600)
central wisconsin | | Change Station

Elev 945 ft 44.35 °N, 90.34 °W | Updated 8 seconds ago

Light Freezing Rain
Light Freezing Rain Mist
32.2 °F
Feels Like 32 °F
N
0.0
Wind Variable Wind from SW
Gusts 0.0 mph

Today
High -- | Low -- °F
--% Chance of Precip.
Yesterday
High -- | Low -- °F
Precip. -- in
Pressure 29.81 in
Visibility 3.0 miles
Clouds Overcast 300 ft
Windchill 32 °F
Dew Point 20 °F
Humidity 61%
Rainfall 0.00 in
Snow Depth Not available.
7:22 AM 4:22 PM
Waxing Crescent, 27% visible
METAR KMFI 050054Z AUTO 20010KT 3SM -FZRA BR OVC003 M01/M02 A2976 RMK AO2 FZRAB08 SLP095 P0000 I1002 T10111017
Pressure 29.81 in
Visibility 3.0 miles
Clouds Overcast 300 ft
Windchill 32 °F
Dew Point 20 °F
Humidity 61%
Rainfall 0.00 in
Snow Depth Not available.
7:22 AM 4:22 PM
Waxing Crescent, 27% visible
METAR KMFI 050054Z AUTO 20010KT 3SM -FZRA BR OVC003 M01/M02 A2976 RMK AO2 FZRAB08 SLP095 P0000 I1002 T10111017

10-Day Weather Forecast

Almanac

Astronomy

Dec. 04, 2016 Rise Set
Actual Time
Civil Twilight
Nautical Twilight
Astronomical Twilight
Moon
Length of Visible Light
Length of Day
Tomorrow will be .
, % of the Moon is Illuminated

Today's Extremes

State Highs State Lows

Community

WunderPhotos

Upload Photos

1,955,744 photos uploaded!

WunderBlog® & News

Nearby

Air Quality

  Air Quality AQ Index Pollutant
Not available.

Snow Depth

Station Depth Elevation

Earthquake Activity

City Distance Mag. Time & Date
Minimum magnitude displayed is 2.5.

Coastal Water Temperatures

Place Temperature

Stations

Nearby Weather Stations

Station Location Temp. Windchill Dew Point Humidity Wind Precip. Elev Updated Type
                   

Watches & Warnings

There are currently no watches in effect.